sensor_id;sensor_type;location;lat;lon;timestamp;P1;durP1;ratioP1;P2;durP2;ratioP2
27558;SDS011;15002;52.028;5.670;2023-05-23T00:00:23;23.63;;;11.48;;
27558;SDS011;15002;52.028;5.670;2023-05-23T00:02:49;14.77;;;9.93;;
27558;SDS011;15002;52.028;5.670;2023-05-23T00:05:15;18.58;;;9.90;;
27558;SDS011;15002;52.028;5.670;2023-05-23T00:07:42;19.48;;;11.20;;
27558;SDS011;15002;52.028;5.670;2023-05-23T00:10:08;16.42;;;10.23;;
27558;SDS011;15002;52.028;5.670;2023-05-23T00:12:35;20.77;;;11.32;;
27558;SDS011;15002;52.028;5.670;2023-05-23T00:15:03;17.42;;;11.63;;
27558;SDS011;15002;52.028;5.670;2023-05-23T00:17:31;20.58;;;11.80;;
27558;SDS011;15002;52.028;5.670;2023-05-23T00:19:57;21.33;;;11.85;;
27558;SDS011;15002;52.028;5.670;2023-05-23T00:22:23;18.92;;;11.80;;
27558;SDS011;15002;52.028;5.670;2023-05-23T00:24:49;18.92;;;11.07;;
27558;SDS011;15002;52.028;5.670;2023-05-23T00:27:15;20.73;;;11.85;;
27558;SDS011;15002;52.028;5.670;2023-05-23T00:29:40;20.50;;;11.80;;
27558;SDS011;15002;52.028;5.670;2023-05-23T00:32:06;19.45;;;11.73;;
27558;SDS011;15002;52.028;5.670;2023-05-23T00:34:31;21.45;;;12.05;;
27558;SDS011;15002;52.028;5.670;2023-05-23T00:36:58;20.13;;;11.55;;
27558;SDS011;15002;52.028;5.670;2023-05-23T00:39:24;21.42;;;12.00;;
27558;SDS011;15002;52.028;5.670;2023-05-23T00:41:49;22.50;;;11.68;;
27558;SDS011;15002;52.028;5.670;2023-05-23T00:44:15;22.00;;;12.13;;
27558;SDS011;15002;52.028;5.670;2023-05-23T00:46:42;21.17;;;12.10;;
27558;SDS011;15002;52.028;5.670;2023-05-23T00:49:09;23.05;;;12.10;;
27558;SDS011;15002;52.028;5.670;2023-05-23T00:51:36;20.88;;;11.93;;
27558;SDS011;15002;52.028;5.670;2023-05-23T00:54:03;18.20;;;10.95;;
27558;SDS011;15002;52.028;5.670;2023-05-23T00:56:30;18.73;;;10.57;;
27558;SDS011;15002;52.028;5.670;2023-05-23T00:58:56;21.83;;;11.38;;
27558;SDS011;15002;52.028;5.670;2023-05-23T01:01:24;20.00;;;10.85;;
27558;SDS011;15002;52.028;5.670;2023-05-23T01:03:51;20.10;;;10.20;;
27558;SDS011;15002;52.028;5.670;2023-05-23T01:06:16;17.75;;;11.05;;
27558;SDS011;15002;52.028;5.670;2023-05-23T01:08:42;21.15;;;11.00;;
27558;SDS011;15002;52.028;5.670;2023-05-23T01:11:14;19.17;;;10.30;;
27558;SDS011;15002;52.028;5.670;2023-05-23T01:13:50;18.02;;;9.75;;
27558;SDS011;15002;52.028;5.670;2023-05-23T01:16:41;16.13;;;9.85;;
27558;SDS011;15002;52.028;5.670;2023-05-23T01:22:13;16.55;;;9.35;;
27558;SDS011;15002;52.028;5.670;2023-05-23T01:25:30;18.00;;;9.80;;
27558;SDS011;15002;52.028;5.670;2023-05-23T01:28:00;14.57;;;9.15;;
27558;SDS011;15002;52.028;5.670;2023-05-23T01:30:29;15.43;;;9.35;;
27558;SDS011;15002;52.028;5.670;2023-05-23T01:32:57;17.27;;;9.15;;
27558;SDS011;15002;52.028;5.670;2023-05-23T01:35:25;12.63;;;8.60;;
27558;SDS011;15002;52.028;5.670;2023-05-23T01:37:54;13.82;;;8.40;;
27558;SDS011;15002;52.028;5.670;2023-05-23T01:40:21;15.18;;;8.52;;
27558;SDS011;15002;52.028;5.670;2023-05-23T01:42:50;14.50;;;8.98;;
27558;SDS011;15002;52.028;5.670;2023-05-23T01:45:17;14.13;;;9.05;;
27558;SDS011;15002;52.028;5.670;2023-05-23T01:47:44;13.40;;;8.52;;
27558;SDS011;15002;52.028;5.670;2023-05-23T01:50:13;13.48;;;8.35;;
27558;SDS011;15002;52.028;5.670;2023-05-23T01:52:39;12.88;;;8.80;;
27558;SDS011;15002;52.028;5.670;2023-05-23T01:55:05;11.68;;;8.63;;
27558;SDS011;15002;52.028;5.670;2023-05-23T01:57:34;15.25;;;8.43;;
27558;SDS011;15002;52.028;5.670;2023-05-23T02:00:02;16.67;;;9.20;;
27558;SDS011;15002;52.028;5.670;2023-05-23T02:02:30;12.13;;;8.52;;
27558;SDS011;15002;52.028;5.670;2023-05-23T02:04:57;13.95;;;9.20;;
27558;SDS011;15002;52.028;5.670;2023-05-23T02:07:23;15.02;;;9.02;;
27558;SDS011;15002;52.028;5.670;2023-05-23T02:09:49;14.43;;;9.50;;
27558;SDS011;15002;52.028;5.670;2023-05-23T02:12:14;13.98;;;8.90;;
27558;SDS011;15002;52.028;5.670;2023-05-23T02:14:40;18.70;;;8.90;;
27558;SDS011;15002;52.028;5.670;2023-05-23T02:17:06;16.13;;;9.50;;
27558;SDS011;15002;52.028;5.670;2023-05-23T02:19:35;16.23;;;9.23;;
27558;SDS011;15002;52.028;5.670;2023-05-23T02:22:01;17.30;;;9.75;;
27558;SDS011;15002;52.028;5.670;2023-05-23T02:24:27;16.98;;;9.93;;
27558;SDS011;15002;52.028;5.670;2023-05-23T02:26:53;17.35;;;10.18;;
27558;SDS011;15002;52.028;5.670;2023-05-23T02:29:19;23.67;;;11.10;;
27558;SDS011;15002;52.028;5.670;2023-05-23T02:31:44;21.60;;;10.63;;
27558;SDS011;15002;52.028;5.670;2023-05-23T02:34:10;19.67;;;10.02;;
27558;SDS011;15002;52.028;5.670;2023-05-23T02:36:35;18.95;;;10.35;;
27558;SDS011;15002;52.028;5.670;2023-05-23T02:39:02;25.60;;;10.63;;
27558;SDS011;15002;52.028;5.670;2023-05-23T02:41:28;20.17;;;10.40;;
27558;SDS011;15002;52.028;5.670;2023-05-23T02:43:54;24.50;;;10.40;;
27558;SDS011;15002;52.028;5.670;2023-05-23T02:46:20;22.55;;;9.27;;
27558;SDS011;15002;52.028;5.670;2023-05-23T02:48:45;16.83;;;8.90;;
27558;SDS011;15002;52.028;5.670;2023-05-23T02:51:11;18.75;;;9.63;;
27558;SDS011;15002;52.028;5.670;2023-05-23T02:53:37;18.45;;;9.45;;
27558;SDS011;15002;52.028;5.670;2023-05-23T02:56:03;16.73;;;9.07;;
27558;SDS011;15002;52.028;5.670;2023-05-23T02:58:29;13.18;;;8.80;;
27558;SDS011;15002;52.028;5.670;2023-05-23T03:00:56;15.18;;;8.23;;
27558;SDS011;15002;52.028;5.670;2023-05-23T03:03:21;11.93;;;8.30;;
27558;SDS011;15002;52.028;5.670;2023-05-23T03:05:47;13.35;;;7.65;;
27558;SDS011;15002;52.028;5.670;2023-05-23T03:08:13;12.23;;;7.85;;
27558;SDS011;15002;52.028;5.670;2023-05-23T03:10:39;12.90;;;7.82;;
27558;SDS011;15002;52.028;5.670;2023-05-23T03:13:04;12.75;;;7.75;;
27558;SDS011;15002;52.028;5.670;2023-05-23T03:15:30;13.38;;;7.57;;
27558;SDS011;15002;52.028;5.670;2023-05-23T03:17:55;11.98;;;7.43;;
27558;SDS011;15002;52.028;5.670;2023-05-23T03:20:21;11.93;;;7.38;;
27558;SDS011;15002;52.028;5.670;2023-05-23T03:22:47;12.45;;;7.93;;
27558;SDS011;15002;52.028;5.670;2023-05-23T03:25:14;13.52;;;7.80;;
27558;SDS011;15002;52.028;5.670;2023-05-23T03:27:40;17.45;;;8.05;;
27558;SDS011;15002;52.028;5.670;2023-05-23T03:30:06;14.52;;;7.10;;
27558;SDS011;15002;52.028;5.670;2023-05-23T03:32:33;13.63;;;8.23;;
27558;SDS011;15002;52.028;5.670;2023-05-23T03:34:58;11.75;;;7.90;;
27558;SDS011;15002;52.028;5.670;2023-05-23T03:37:24;11.45;;;8.00;;
27558;SDS011;15002;52.028;5.670;2023-05-23T03:39:50;13.38;;;8.05;;
27558;SDS011;15002;52.028;5.670;2023-05-23T03:42:16;11.55;;;7.68;;
27558;SDS011;15002;52.028;5.670;2023-05-23T03:44:42;11.70;;;7.68;;
27558;SDS011;15002;52.028;5.670;2023-05-23T03:47:08;13.68;;;8.00;;
27558;SDS011;15002;52.028;5.670;2023-05-23T03:49:33;14.80;;;8.20;;
27558;SDS011;15002;52.028;5.670;2023-05-23T03:51:59;13.45;;;7.88;;
27558;SDS011;15002;52.028;5.670;2023-05-23T03:54:25;15.98;;;7.75;;
27558;SDS011;15002;52.028;5.670;2023-05-23T03:56:50;16.10;;;8.40;;
27558;SDS011;15002;52.028;5.670;2023-05-23T03:59:16;16.10;;;8.38;;
27558;SDS011;15002;52.028;5.670;2023-05-23T04:01:42;22.15;;;9.60;;
27558;SDS011;15002;52.028;5.670;2023-05-23T04:04:08;23.10;;;9.20;;
27558;SDS011;15002;52.028;5.670;2023-05-23T04:06:33;26.85;;;9.07;;
27558;SDS011;15002;52.028;5.670;2023-05-23T04:08:59;22.27;;;8.88;;
27558;SDS011;15002;52.028;5.670;2023-05-23T04:11:26;18.80;;;8.90;;
27558;SDS011;15002;52.028;5.670;2023-05-23T04:13:51;25.15;;;9.68;;
27558;SDS011;15002;52.028;5.670;2023-05-23T04:16:18;21.55;;;9.80;;
27558;SDS011;15002;52.028;5.670;2023-05-23T04:18:43;19.90;;;9.63;;
27558;SDS011;15002;52.028;5.670;2023-05-23T04:21:11;22.92;;;9.85;;
27558;SDS011;15002;52.028;5.670;2023-05-23T04:23:36;22.30;;;10.60;;
27558;SDS011;15002;52.028;5.670;2023-05-23T04:26:02;25.60;;;10.70;;
27558;SDS011;15002;52.028;5.670;2023-05-23T04:28:29;22.23;;;9.77;;
27558;SDS011;15002;52.028;5.670;2023-05-23T04:30:55;22.65;;;10.00;;
27558;SDS011;15002;52.028;5.670;2023-05-23T04:33:22;24.58;;;10.68;;
27558;SDS011;15002;52.028;5.670;2023-05-23T04:35:48;29.63;;;10.60;;
27558;SDS011;15002;52.028;5.670;2023-05-23T04:38:15;22.80;;;9.70;;
27558;SDS011;15002;52.028;5.670;2023-05-23T04:40:41;20.08;;;9.40;;
27558;SDS011;15002;52.028;5.670;2023-05-23T04:43:07;19.35;;;8.48;;
27558;SDS011;15002;52.028;5.670;2023-05-23T04:45:34;17.92;;;8.73;;
27558;SDS011;15002;52.028;5.670;2023-05-23T04:48:00;16.05;;;7.75;;
27558;SDS011;15002;52.028;5.670;2023-05-23T04:50:27;20.30;;;8.32;;
27558;SDS011;15002;52.028;5.670;2023-05-23T04:52:56;16.67;;;7.30;;
27558;SDS011;15002;52.028;5.670;2023-05-23T04:55:22;17.98;;;8.13;;
27558;SDS011;15002;52.028;5.670;2023-05-23T04:57:48;15.85;;;7.13;;
27558;SDS011;15002;52.028;5.670;2023-05-23T05:00:13;14.60;;;6.93;;
27558;SDS011;15002;52.028;5.670;2023-05-23T05:02:40;15.18;;;7.00;;
27558;SDS011;15002;52.028;5.670;2023-05-23T05:05:06;19.73;;;7.75;;
27558;SDS011;15002;52.028;5.670;2023-05-23T05:07:31;18.42;;;7.43;;
27558;SDS011;15002;52.028;5.670;2023-05-23T05:09:59;18.35;;;7.75;;
27558;SDS011;15002;52.028;5.670;2023-05-23T05:12:25;20.63;;;6.90;;
27558;SDS011;15002;52.028;5.670;2023-05-23T05:14:51;20.98;;;7.07;;
27558;SDS011;15002;52.028;5.670;2023-05-23T05:17:16;15.82;;;6.57;;
27558;SDS011;15002;52.028;5.670;2023-05-23T05:19:43;19.27;;;6.60;;
27558;SDS011;15002;52.028;5.670;2023-05-23T05:22:10;17.27;;;6.47;;
27558;SDS011;15002;52.028;5.670;2023-05-23T05:24:35;15.75;;;6.13;;
27558;SDS011;15002;52.028;5.670;2023-05-23T05:27:02;15.20;;;5.63;;
27558;SDS011;15002;52.028;5.670;2023-05-23T05:29:27;13.15;;;5.78;;
27558;SDS011;15002;52.028;5.670;2023-05-23T05:31:53;14.75;;;5.85;;
27558;SDS011;15002;52.028;5.670;2023-05-23T05:34:19;15.40;;;5.97;;
27558;SDS011;15002;52.028;5.670;2023-05-23T05:36:45;16.02;;;5.80;;
27558;SDS011;15002;52.028;5.670;2023-05-23T05:39:12;13.20;;;5.10;;
27558;SDS011;15002;52.028;5.670;2023-05-23T05:41:38;11.00;;;5.50;;
27558;SDS011;15002;52.028;5.670;2023-05-23T05:44:04;10.05;;;5.38;;
27558;SDS011;15002;52.028;5.670;2023-05-23T05:46:30;16.08;;;5.68;;
27558;SDS011;15002;52.028;5.670;2023-05-23T05:48:56;12.82;;;5.13;;
27558;SDS011;15002;52.028;5.670;2023-05-23T05:51:21;15.05;;;5.75;;
27558;SDS011;15002;52.028;5.670;2023-05-23T05:53:47;13.88;;;5.70;;
27558;SDS011;15002;52.028;5.670;2023-05-23T05:56:13;14.35;;;5.03;;
27558;SDS011;15002;52.028;5.670;2023-05-23T05:58:39;19.08;;;5.82;;
27558;SDS011;15002;52.028;5.670;2023-05-23T06:01:05;13.05;;;5.45;;
27558;SDS011;15002;52.028;5.670;2023-05-23T06:03:31;14.40;;;5.88;;
27558;SDS011;15002;52.028;5.670;2023-05-23T06:05:57;13.50;;;5.18;;
27558;SDS011;15002;52.028;5.670;2023-05-23T06:08:23;15.48;;;5.80;;
27558;SDS011;15002;52.028;5.670;2023-05-23T06:10:49;15.65;;;4.82;;
27558;SDS011;15002;52.028;5.670;2023-05-23T06:13:15;11.38;;;4.93;;
27558;SDS011;15002;52.028;5.670;2023-05-23T06:15:41;13.60;;;4.90;;
27558;SDS011;15002;52.028;5.670;2023-05-23T06:18:07;13.35;;;4.57;;
27558;SDS011;15002;52.028;5.670;2023-05-23T06:20:33;12.88;;;5.05;;
27558;SDS011;15002;52.028;5.670;2023-05-23T06:22:58;10.20;;;4.75;;
27558;SDS011;15002;52.028;5.670;2023-05-23T06:25:25;14.70;;;5.00;;
27558;SDS011;15002;52.028;5.670;2023-05-23T06:27:51;15.55;;;5.22;;
27558;SDS011;15002;52.028;5.670;2023-05-23T06:30:17;13.05;;;4.68;;
27558;SDS011;15002;52.028;5.670;2023-05-23T06:32:42;14.18;;;5.10;;
27558;SDS011;15002;52.028;5.670;2023-05-23T06:35:08;11.63;;;4.80;;
27558;SDS011;15002;52.028;5.670;2023-05-23T06:37:34;12.82;;;5.03;;
27558;SDS011;15002;52.028;5.670;2023-05-23T06:40:00;14.27;;;5.18;;
27558;SDS011;15002;52.028;5.670;2023-05-23T06:42:26;20.27;;;5.80;;
27558;SDS011;15002;52.028;5.670;2023-05-23T06:44:51;13.88;;;5.18;;
27558;SDS011;15002;52.028;5.670;2023-05-23T06:47:17;17.30;;;5.63;;
27558;SDS011;15002;52.028;5.670;2023-05-23T06:49:42;12.88;;;5.30;;
27558;SDS011;15002;52.028;5.670;2023-05-23T06:52:09;11.40;;;5.13;;
27558;SDS011;15002;52.028;5.670;2023-05-23T06:54:35;10.90;;;5.18;;
27558;SDS011;15002;52.028;5.670;2023-05-23T06:57:00;11.13;;;5.13;;
27558;SDS011;15002;52.028;5.670;2023-05-23T06:59:26;14.60;;;4.85;;
27558;SDS011;15002;52.028;5.670;2023-05-23T07:01:52;12.30;;;5.35;;
27558;SDS011;15002;52.028;5.670;2023-05-23T07:04:17;15.18;;;5.35;;
27558;SDS011;15002;52.028;5.670;2023-05-23T07:06:43;15.40;;;5.57;;
27558;SDS011;15002;52.028;5.670;2023-05-23T07:09:09;13.15;;;4.88;;
27558;SDS011;15002;52.028;5.670;2023-05-23T07:11:35;8.80;;;4.90;;
27558;SDS011;15002;52.028;5.670;2023-05-23T07:14:03;11.18;;;4.65;;
27558;SDS011;15002;52.028;5.670;2023-05-23T07:16:29;12.07;;;4.82;;
27558;SDS011;15002;52.028;5.670;2023-05-23T07:18:55;12.38;;;4.50;;
27558;SDS011;15002;52.028;5.670;2023-05-23T07:21:21;10.25;;;5.25;;
27558;SDS011;15002;52.028;5.670;2023-05-23T07:23:46;11.75;;;5.47;;
27558;SDS011;15002;52.028;5.670;2023-05-23T07:26:12;10.95;;;5.15;;
27558;SDS011;15002;52.028;5.670;2023-05-23T07:28:38;11.05;;;5.10;;
27558;SDS011;15002;52.028;5.670;2023-05-23T07:31:03;12.00;;;5.18;;
27558;SDS011;15002;52.028;5.670;2023-05-23T07:33:29;14.18;;;4.82;;
27558;SDS011;15002;52.028;5.670;2023-05-23T07:35:57;9.20;;;4.18;;
27558;SDS011;15002;52.028;5.670;2023-05-23T07:38:23;11.35;;;4.13;;
27558;SDS011;15002;52.028;5.670;2023-05-23T07:40:50;8.10;;;3.88;;
27558;SDS011;15002;52.028;5.670;2023-05-23T07:43:16;12.73;;;3.65;;
27558;SDS011;15002;52.028;5.670;2023-05-23T07:45:42;8.70;;;3.50;;
27558;SDS011;15002;52.028;5.670;2023-05-23T07:48:07;10.25;;;3.20;;
27558;SDS011;15002;52.028;5.670;2023-05-23T07:50:34;9.43;;;2.63;;
27558;SDS011;15002;52.028;5.670;2023-05-23T07:52:59;13.15;;;3.03;;
27558;SDS011;15002;52.028;5.670;2023-05-23T07:55:25;9.10;;;2.70;;
27558;SDS011;15002;52.028;5.670;2023-05-23T07:57:50;14.18;;;2.78;;
27558;SDS011;15002;52.028;5.670;2023-05-23T08:00:18;8.85;;;2.35;;
27558;SDS011;15002;52.028;5.670;2023-05-23T08:02:45;10.82;;;2.90;;
27558;SDS011;15002;52.028;5.670;2023-05-23T08:05:10;11.73;;;2.65;;
27558;SDS011;15002;52.028;5.670;2023-05-23T08:07:36;11.63;;;3.65;;
27558;SDS011;15002;52.028;5.670;2023-05-23T08:10:01;7.38;;;2.28;;
27558;SDS011;15002;52.028;5.670;2023-05-23T08:12:27;12.73;;;2.78;;
27558;SDS011;15002;52.028;5.670;2023-05-23T08:14:53;9.00;;;2.30;;
27558;SDS011;15002;52.028;5.670;2023-05-23T08:17:18;11.10;;;2.50;;
27558;SDS011;15002;52.028;5.670;2023-05-23T08:19:44;11.27;;;2.53;;
27558;SDS011;15002;52.028;5.670;2023-05-23T08:22:10;11.32;;;2.72;;
27558;SDS011;15002;52.028;5.670;2023-05-23T08:24:35;10.52;;;2.90;;
27558;SDS011;15002;52.028;5.670;2023-05-23T08:27:01;11.98;;;2.72;;
27558;SDS011;15002;52.028;5.670;2023-05-23T08:29:26;9.32;;;2.08;;
27558;SDS011;15002;52.028;5.670;2023-05-23T08:31:52;13.00;;;2.65;;
27558;SDS011;15002;52.028;5.670;2023-05-23T08:34:18;9.40;;;2.92;;
27558;SDS011;15002;52.028;5.670;2023-05-23T08:36:43;9.90;;;2.60;;
27558;SDS011;15002;52.028;5.670;2023-05-23T08:39:09;11.27;;;2.58;;
27558;SDS011;15002;52.028;5.670;2023-05-23T08:41:35;9.68;;;2.97;;
27558;SDS011;15002;52.028;5.670;2023-05-23T08:44:01;12.45;;;2.75;;
27558;SDS011;15002;52.028;5.670;2023-05-23T08:46:27;9.75;;;2.88;;
27558;SDS011;15002;52.028;5.670;2023-05-23T08:48:53;12.50;;;2.70;;
27558;SDS011;15002;52.028;5.670;2023-05-23T08:51:21;15.85;;;3.35;;
27558;SDS011;15002;52.028;5.670;2023-05-23T08:53:49;14.23;;;2.70;;
27558;SDS011;15002;52.028;5.670;2023-05-23T08:56:15;15.65;;;3.10;;
27558;SDS011;15002;52.028;5.670;2023-05-23T08:58:41;12.85;;;3.00;;
27558;SDS011;15002;52.028;5.670;2023-05-23T09:01:07;10.05;;;2.80;;
27558;SDS011;15002;52.028;5.670;2023-05-23T09:03:35;11.88;;;3.15;;
27558;SDS011;15002;52.028;5.670;2023-05-23T09:06:07;16.13;;;3.10;;
27558;SDS011;15002;52.028;5.670;2023-05-23T09:08:34;9.48;;;2.63;;
27558;SDS011;15002;52.028;5.670;2023-05-23T09:11:01;9.60;;;2.58;;
27558;SDS011;15002;52.028;5.670;2023-05-23T09:13:31;13.05;;;2.90;;
27558;SDS011;15002;52.028;5.670;2023-05-23T09:18:26;19.83;;;2.50;;
27558;SDS011;15002;52.028;5.670;2023-05-23T09:21:02;18.02;;;3.08;;
27558;SDS011;15002;52.028;5.670;2023-05-23T09:23:31;13.98;;;2.70;;
27558;SDS011;15002;52.028;5.670;2023-05-23T09:26:04;9.68;;;2.90;;
27558;SDS011;15002;52.028;5.670;2023-05-23T09:28:31;10.55;;;2.50;;
27558;SDS011;15002;52.028;5.670;2023-05-23T09:30:58;7.53;;;2.53;;
27558;SDS011;15002;52.028;5.670;2023-05-23T09:35:59;10.77;;;2.78;;
27558;SDS011;15002;52.028;5.670;2023-05-23T09:38:25;8.50;;;2.38;;
27558;SDS011;15002;52.028;5.670;2023-05-23T09:40:53;11.48;;;2.95;;
27558;SDS011;15002;52.028;5.670;2023-05-23T09:43:20;7.60;;;2.35;;
27558;SDS011;15002;52.028;5.670;2023-05-23T09:45:46;16.38;;;3.60;;
27558;SDS011;15002;52.028;5.670;2023-05-23T09:48:12;18.50;;;3.05;;
27558;SDS011;15002;52.028;5.670;2023-05-23T09:50:38;11.57;;;2.90;;
27558;SDS011;15002;52.028;5.670;2023-05-23T09:53:03;12.68;;;3.03;;
27558;SDS011;15002;52.028;5.670;2023-05-23T09:55:29;8.00;;;3.28;;
27558;SDS011;15002;52.028;5.670;2023-05-23T09:57:55;6.45;;;2.33;;
27558;SDS011;15002;52.028;5.670;2023-05-23T10:00:23;11.77;;;3.08;;
27558;SDS011;15002;52.028;5.670;2023-05-23T10:02:53;14.98;;;2.80;;
27558;SDS011;15002;52.028;5.670;2023-05-23T10:08:23;13.18;;;2.80;;
27558;SDS011;15002;52.028;5.670;2023-05-23T10:13:21;11.20;;;2.90;;
27558;SDS011;15002;52.028;5.670;2023-05-23T10:15:50;9.05;;;3.13;;
27558;SDS011;15002;52.028;5.670;2023-05-23T10:18:28;10.88;;;2.80;;
27558;SDS011;15002;52.028;5.670;2023-05-23T10:20:56;13.77;;;2.75;;
27558;SDS011;15002;52.028;5.670;2023-05-23T10:23:33;10.80;;;3.15;;
27558;SDS011;15002;52.028;5.670;2023-05-23T10:26:00;6.97;;;2.53;;
27558;SDS011;15002;52.028;5.670;2023-05-23T10:28:28;11.80;;;2.83;;
27558;SDS011;15002;52.028;5.670;2023-05-23T10:30:53;10.45;;;2.58;;
27558;SDS011;15002;52.028;5.670;2023-05-23T10:33:19;10.77;;;3.03;;
27558;SDS011;15002;52.028;5.670;2023-05-23T10:35:49;11.68;;;2.50;;
27558;SDS011;15002;52.028;5.670;2023-05-23T10:41:23;13.20;;;2.55;;
27558;SDS011;15002;52.028;5.670;2023-05-23T10:46:54;10.98;;;2.67;;
27558;SDS011;15002;52.028;5.670;2023-05-23T10:49:44;11.95;;;2.60;;
27558;SDS011;15002;52.028;5.670;2023-05-23T10:52:15;12.23;;;3.15;;
27558;SDS011;15002;52.028;5.670;2023-05-23T10:57:21;12.13;;;2.75;;
27558;SDS011;15002;52.028;5.670;2023-05-23T10:59:53;13.70;;;3.28;;
27558;SDS011;15002;52.028;5.670;2023-05-23T11:02:19;10.82;;;2.70;;
27558;SDS011;15002;52.028;5.670;2023-05-23T11:08:08;10.93;;;3.00;;
27558;SDS011;15002;52.028;5.670;2023-05-23T11:13:21;7.57;;;2.63;;
27558;SDS011;15002;52.028;5.670;2023-05-23T11:15:47;8.63;;;2.30;;
27558;SDS011;15002;52.028;5.670;2023-05-23T11:18:21;10.43;;;2.45;;
27558;SDS011;15002;52.028;5.670;2023-05-23T11:20:51;11.23;;;2.15;;
27558;SDS011;15002;52.028;5.670;2023-05-23T11:23:18;15.20;;;3.25;;
27558;SDS011;15002;52.028;5.670;2023-05-23T11:25:49;10.98;;;2.50;;
27558;SDS011;15002;52.028;5.670;2023-05-23T11:28:16;11.55;;;2.65;;
27558;SDS011;15002;52.028;5.670;2023-05-23T11:30:42;9.43;;;2.67;;
27558;SDS011;15002;52.028;5.670;2023-05-23T11:33:11;12.80;;;2.85;;
27558;SDS011;15002;52.028;5.670;2023-05-23T11:35:47;10.02;;;2.63;;
27558;SDS011;15002;52.028;5.670;2023-05-23T11:38:15;5.45;;;2.10;;
27558;SDS011;15002;52.028;5.670;2023-05-23T11:40:42;7.75;;;2.55;;
27558;SDS011;15002;52.028;5.670;2023-05-23T11:43:15;10.02;;;2.50;;
27558;SDS011;15002;52.028;5.670;2023-05-23T11:45:41;11.23;;;2.55;;
27558;SDS011;15002;52.028;5.670;2023-05-23T11:50:34;11.15;;;2.38;;
27558;SDS011;15002;52.028;5.670;2023-05-23T11:53:18;8.32;;;2.40;;
27558;SDS011;15002;52.028;5.670;2023-05-23T11:55:52;11.88;;;2.40;;
27558;SDS011;15002;52.028;5.670;2023-05-23T11:58:20;8.63;;;2.38;;
27558;SDS011;15002;52.028;5.670;2023-05-23T12:00:46;12.23;;;2.47;;
27558;SDS011;15002;52.028;5.670;2023-05-23T12:03:12;10.68;;;2.13;;
27558;SDS011;15002;52.028;5.670;2023-05-23T12:05:38;10.35;;;2.45;;
27558;SDS011;15002;52.028;5.670;2023-05-23T12:08:03;11.38;;;2.70;;
27558;SDS011;15002;52.028;5.670;2023-05-23T12:10:29;11.43;;;2.45;;
27558;SDS011;15002;52.028;5.670;2023-05-23T12:12:55;10.18;;;2.75;;
27558;SDS011;15002;52.028;5.670;2023-05-23T12:15:24;9.45;;;2.42;;
27558;SDS011;15002;52.028;5.670;2023-05-23T12:17:53;10.23;;;2.08;;
27558;SDS011;15002;52.028;5.670;2023-05-23T12:20:20;8.57;;;2.42;;
27558;SDS011;15002;52.028;5.670;2023-05-23T12:22:46;7.22;;;2.08;;
27558;SDS011;15002;52.028;5.670;2023-05-23T12:25:12;14.15;;;2.53;;
27558;SDS011;15002;52.028;5.670;2023-05-23T12:27:38;11.77;;;2.50;;
27558;SDS011;15002;52.028;5.670;2023-05-23T12:32:33;10.18;;;2.47;;
27558;SDS011;15002;52.028;5.670;2023-05-23T12:35:03;17.30;;;3.03;;
27558;SDS011;15002;52.028;5.670;2023-05-23T12:37:29;12.65;;;2.45;;
27558;SDS011;15002;52.028;5.670;2023-05-23T12:39:55;11.25;;;2.28;;
27558;SDS011;15002;52.028;5.670;2023-05-23T12:42:21;11.60;;;2.90;;
27558;SDS011;15002;52.028;5.670;2023-05-23T12:44:49;12.07;;;2.17;;
27558;SDS011;15002;52.028;5.670;2023-05-23T12:47:15;13.73;;;2.22;;
27558;SDS011;15002;52.028;5.670;2023-05-23T12:49:41;10.43;;;2.60;;
27558;SDS011;15002;52.028;5.670;2023-05-23T12:52:08;9.55;;;2.33;;
27558;SDS011;15002;52.028;5.670;2023-05-23T12:54:34;9.57;;;2.25;;
27558;SDS011;15002;52.028;5.670;2023-05-23T12:57:00;11.00;;;2.40;;
27558;SDS011;15002;52.028;5.670;2023-05-23T12:59:26;11.30;;;2.03;;
27558;SDS011;15002;52.028;5.670;2023-05-23T13:01:51;11.90;;;2.25;;
27558;SDS011;15002;52.028;5.670;2023-05-23T13:04:18;13.20;;;2.38;;
27558;SDS011;15002;52.028;5.670;2023-05-23T13:06:43;13.65;;;2.95;;
27558;SDS011;15002;52.028;5.670;2023-05-23T13:09:09;15.15;;;2.38;;
27558;SDS011;15002;52.028;5.670;2023-05-23T13:11:35;9.45;;;2.72;;
27558;SDS011;15002;52.028;5.670;2023-05-23T13:14:01;11.35;;;2.58;;
27558;SDS011;15002;52.028;5.670;2023-05-23T13:16:28;13.70;;;2.50;;
27558;SDS011;15002;52.028;5.670;2023-05-23T13:18:53;13.13;;;2.53;;
27558;SDS011;15002;52.028;5.670;2023-05-23T13:21:19;18.27;;;3.00;;
27558;SDS011;15002;52.028;5.670;2023-05-23T13:23:45;11.40;;;2.40;;
27558;SDS011;15002;52.028;5.670;2023-05-23T13:26:11;9.43;;;2.30;;
27558;SDS011;15002;52.028;5.670;2023-05-23T13:28:38;9.73;;;2.13;;
27558;SDS011;15002;52.028;5.670;2023-05-23T13:31:04;8.38;;;2.05;;
27558;SDS011;15002;52.028;5.670;2023-05-23T13:33:30;10.45;;;2.42;;
27558;SDS011;15002;52.028;5.670;2023-05-23T13:35:55;7.28;;;1.70;;
27558;SDS011;15002;52.028;5.670;2023-05-23T13:38:21;14.65;;;2.70;;
27558;SDS011;15002;52.028;5.670;2023-05-23T13:40:47;8.77;;;1.83;;
27558;SDS011;15002;52.028;5.670;2023-05-23T13:43:15;11.70;;;2.35;;
27558;SDS011;15002;52.028;5.670;2023-05-23T13:45:41;6.85;;;2.03;;
27558;SDS011;15002;52.028;5.670;2023-05-23T13:48:06;7.60;;;1.92;;
27558;SDS011;15002;52.028;5.670;2023-05-23T13:50:32;10.63;;;2.50;;
27558;SDS011;15002;52.028;5.670;2023-05-23T13:52:58;8.27;;;2.00;;
27558;SDS011;15002;52.028;5.670;2023-05-23T13:55:23;8.68;;;2.17;;
27558;SDS011;15002;52.028;5.670;2023-05-23T13:57:49;9.82;;;2.05;;
27558;SDS011;15002;52.028;5.670;2023-05-23T14:00:15;8.63;;;2.00;;
27558;SDS011;15002;52.028;5.670;2023-05-23T14:02:41;18.85;;;2.67;;
27558;SDS011;15002;52.028;5.670;2023-05-23T14:05:07;7.97;;;2.47;;
27558;SDS011;15002;52.028;5.670;2023-05-23T14:07:33;11.63;;;2.72;;
27558;SDS011;15002;52.028;5.670;2023-05-23T14:09:58;10.55;;;2.70;;
27558;SDS011;15002;52.028;5.670;2023-05-23T14:12:24;7.68;;;2.35;;
27558;SDS011;15002;52.028;5.670;2023-05-23T14:14:50;11.10;;;2.38;;
27558;SDS011;15002;52.028;5.670;2023-05-23T14:17:16;7.97;;;2.33;;
27558;SDS011;15002;52.028;5.670;2023-05-23T14:19:42;13.05;;;2.22;;
27558;SDS011;15002;52.028;5.670;2023-05-23T14:22:08;9.32;;;2.38;;
27558;SDS011;15002;52.028;5.670;2023-05-23T14:24:34;11.40;;;2.47;;
27558;SDS011;15002;52.028;5.670;2023-05-23T14:26:59;6.90;;;2.50;;
27558;SDS011;15002;52.028;5.670;2023-05-23T14:29:26;7.95;;;2.38;;
27558;SDS011;15002;52.028;5.670;2023-05-23T14:31:52;16.27;;;2.40;;
27558;SDS011;15002;52.028;5.670;2023-05-23T14:34:17;12.35;;;2.42;;
27558;SDS011;15002;52.028;5.670;2023-05-23T14:36:43;10.25;;;2.17;;
27558;SDS011;15002;52.028;5.670;2023-05-23T14:39:09;12.02;;;2.28;;
27558;SDS011;15002;52.028;5.670;2023-05-23T14:41:35;8.45;;;2.08;;
27558;SDS011;15002;52.028;5.670;2023-05-23T14:44:01;10.55;;;2.45;;
27558;SDS011;15002;52.028;5.670;2023-05-23T14:46:27;9.18;;;2.40;;
27558;SDS011;15002;52.028;5.670;2023-05-23T14:48:53;14.35;;;2.33;;
27558;SDS011;15002;52.028;5.670;2023-05-23T14:51:19;8.80;;;2.13;;
27558;SDS011;15002;52.028;5.670;2023-05-23T14:53:44;10.45;;;2.25;;
27558;SDS011;15002;52.028;5.670;2023-05-23T14:56:10;13.48;;;2.92;;
27558;SDS011;15002;52.028;5.670;2023-05-23T14:58:36;8.63;;;2.45;;
27558;SDS011;15002;52.028;5.670;2023-05-23T15:01:04;12.63;;;2.95;;
27558;SDS011;15002;52.028;5.670;2023-05-23T15:03:30;11.13;;;2.40;;
27558;SDS011;15002;52.028;5.670;2023-05-23T15:05:55;6.95;;;2.15;;